sensor_id;sensor_type;location;lat;lon;timestamp;temperature;humidity
3156;DHT22;1588;50.892;7.082;2023-02-04T00:01:21;8.50;99.90
3156;DHT22;1588;50.892;7.082;2023-02-04T00:06:24;8.50;99.90
3156;DHT22;1588;50.892;7.082;2023-02-04T00:11:29;8.50;99.90
3156;DHT22;1588;50.892;7.082;2023-02-04T00:16:33;8.40;99.90
3156;DHT22;1588;50.892;7.082;2023-02-04T00:21:42;8.50;99.90
3156;DHT22;1588;50.892;7.082;2023-02-04T00:26:44;8.40;99.90
3156;DHT22;1588;50.892;7.082;2023-02-04T00:31:48;8.40;99.90
3156;DHT22;1588;50.892;7.082;2023-02-04T00:36:51;8.40;99.90
3156;DHT22;1588;50.892;7.082;2023-02-04T00:41:57;8.40;99.90
3156;DHT22;1588;50.892;7.082;2023-02-04T00:47:02;8.40;99.90
3156;DHT22;1588;50.892;7.082;2023-02-04T00:52:04;8.40;99.90
3156;DHT22;1588;50.892;7.082;2023-02-04T00:57:09;8.30;99.90
3156;DHT22;1588;50.892;7.082;2023-02-04T01:02:13;8.40;99.90
3156;DHT22;1588;50.892;7.082;2023-02-04T01:07:16;8.30;99.90
3156;DHT22;1588;50.892;7.082;2023-02-04T01:12:18;8.30;99.90
3156;DHT22;1588;50.892;7.082;2023-02-04T01:17:24;8.20;99.90
3156;DHT22;1588;50.892;7.082;2023-02-04T01:22:26;8.20;99.90
3156;DHT22;1588;50.892;7.082;2023-02-04T01:27:29;8.20;99.90
3156;DHT22;1588;50.892;7.082;2023-02-04T01:32:39;8.10;99.90
3156;DHT22;1588;50.892;7.082;2023-02-04T01:37:42;8.10;99.90
3156;DHT22;1588;50.892;7.082;2023-02-04T01:42:45;8.10;99.90
3156;DHT22;1588;50.892;7.082;2023-02-04T01:47:49;8.10;99.90
3156;DHT22;1588;50.892;7.082;2023-02-04T01:52:52;8.10;99.90
3156;DHT22;1588;50.892;7.082;2023-02-04T01:57:54;8.10;99.90
3156;DHT22;1588;50.892;7.082;2023-02-04T02:03:00;8.10;99.90
3156;DHT22;1588;50.892;7.082;2023-02-04T02:08:04;8.00;99.90
3156;DHT22;1588;50.892;7.082;2023-02-04T02:13:10;8.00;99.90
3156;DHT22;1588;50.892;7.082;2023-02-04T02:18:14;8.00;99.90
3156;DHT22;1588;50.892;7.082;2023-02-04T02:23:21;8.00;99.90
3156;DHT22;1588;50.892;7.082;2023-02-04T02:28:27;8.00;99.90
3156;DHT22;1588;50.892;7.082;2023-02-04T02:33:29;7.90;99.90
3156;DHT22;1588;50.892;7.082;2023-02-04T02:38:32;7.90;99.90
3156;DHT22;1588;50.892;7.082;2023-02-04T02:43:39;7.90;99.90
3156;DHT22;1588;50.892;7.082;2023-02-04T02:48:41;7.80;99.90
3156;DHT22;1588;50.892;7.082;2023-02-04T02:53:44;7.90;99.90
3156;DHT22;1588;50.892;7.082;2023-02-04T02:58:48;7.80;99.90
3156;DHT22;1588;50.892;7.082;2023-02-04T03:03:50;7.80;99.90
3156;DHT22;1588;50.892;7.082;2023-02-04T03:08:54;7.80;99.90
3156;DHT22;1588;50.892;7.082;2023-02-04T03:14:00;7.70;99.90
3156;DHT22;1588;50.892;7.082;2023-02-04T03:19:04;7.70;99.90
3156;DHT22;1588;50.892;7.082;2023-02-04T03:24:07;7.70;99.90
3156;DHT22;1588;50.892;7.082;2023-02-04T03:29:11;7.70;99.90
3156;DHT22;1588;50.892;7.082;2023-02-04T03:34:14;7.70;99.90
3156;DHT22;1588;50.892;7.082;2023-02-04T03:39:16;7.70;99.90
3156;DHT22;1588;50.892;7.082;2023-02-04T03:44:23;7.60;99.90
3156;DHT22;1588;50.892;7.082;2023-02-04T03:49:26;7.70;99.90
3156;DHT22;1588;50.892;7.082;2023-02-04T03:54:29;7.60;99.90
3156;DHT22;1588;50.892;7.082;2023-02-04T03:59:33;7.50;99.90
3156;DHT22;1588;50.892;7.082;2023-02-04T04:04:38;7.60;99.90
3156;DHT22;1588;50.892;7.082;2023-02-04T04:09:40;7.60;99.90
3156;DHT22;1588;50.892;7.082;2023-02-04T04:14:44;7.50;99.90
3156;DHT22;1588;50.892;7.082;2023-02-04T04:19:57;7.50;99.90
3156;DHT22;1588;50.892;7.082;2023-02-04T04:24:59;7.50;99.90
3156;DHT22;1588;50.892;7.082;2023-02-04T04:30:04;7.50;99.90
3156;DHT22;1588;50.892;7.082;2023-02-04T04:35:07;7.50;99.90
3156;DHT22;1588;50.892;7.082;2023-02-04T04:40:15;7.50;99.90
3156;DHT22;1588;50.892;7.082;2023-02-04T04:45:19;7.40;99.90
3156;DHT22;1588;50.892;7.082;2023-02-04T04:50:22;7.40;99.90
3156;DHT22;1588;50.892;7.082;2023-02-04T04:55:24;7.40;99.90
3156;DHT22;1588;50.892;7.082;2023-02-04T05:00:28;7.40;99.90
3156;DHT22;1588;50.892;7.082;2023-02-04T05:05:30;7.50;99.90
3156;DHT22;1588;50.892;7.082;2023-02-04T05:10:33;7.40;99.90
3156;DHT22;1588;50.892;7.082;2023-02-04T05:15:37;7.40;99.90
3156;DHT22;1588;50.892;7.082;2023-02-04T05:20:40;7.40;99.90
3156;DHT22;1588;50.892;7.082;2023-02-04T05:25:42;7.40;99.90
3156;DHT22;1588;50.892;7.082;2023-02-04T05:30:46;7.40;99.90
3156;DHT22;1588;50.892;7.082;2023-02-04T05:35:48;7.40;99.90
3156;DHT22;1588;50.892;7.082;2023-02-04T05:40:51;7.30;99.90
3156;DHT22;1588;50.892;7.082;2023-02-04T05:45:54;7.30;99.90
3156;DHT22;1588;50.892;7.082;2023-02-04T05:51:04;7.30;99.90
3156;DHT22;1588;50.892;7.082;2023-02-04T05:56:06;7.20;99.90
3156;DHT22;1588;50.892;7.082;2023-02-04T06:01:11;7.20;99.90
3156;DHT22;1588;50.892;7.082;2023-02-04T06:06:14;7.10;99.90
3156;DHT22;1588;50.892;7.082;2023-02-04T06:11:16;7.10;99.90
3156;DHT22;1588;50.892;7.082;2023-02-04T06:16:20;7.10;99.90
3156;DHT22;1588;50.892;7.082;2023-02-04T06:21:29;7.10;99.90
3156;DHT22;1588;50.892;7.082;2023-02-04T06:26:31;7.10;99.90
3156;DHT22;1588;50.892;7.082;2023-02-04T06:31:35;7.10;99.90
3156;DHT22;1588;50.892;7.082;2023-02-04T06:36:39;7.10;99.90
3156;DHT22;1588;50.892;7.082;2023-02-04T06:41:41;7.10;99.90
3156;DHT22;1588;50.892;7.082;2023-02-04T06:46:45;7.00;99.90
3156;DHT22;1588;50.892;7.082;2023-02-04T06:51:48;7.00;99.90
3156;DHT22;1588;50.892;7.082;2023-02-04T06:56:50;7.00;99.90
3156;DHT22;1588;50.892;7.082;2023-02-04T07:01:54;7.00;99.90
3156;DHT22;1588;50.892;7.082;2023-02-04T07:06:56;7.00;99.90
3156;DHT22;1588;50.892;7.082;2023-02-04T07:11:59;7.00;99.90
3156;DHT22;1588;50.892;7.082;2023-02-04T07:17:04;7.00;99.90
3156;DHT22;1588;50.892;7.082;2023-02-04T07:22:07;7.00;99.90
3156;DHT22;1588;50.892;7.082;2023-02-04T07:27:12;6.90;99.90
3156;DHT22;1588;50.892;7.082;2023-02-04T07:32:17;7.00;99.90
3156;DHT22;1588;50.892;7.082;2023-02-04T07:37:22;7.00;99.90
3156;DHT22;1588;50.892;7.082;2023-02-04T07:42:33;7.00;99.90
3156;DHT22;1588;50.892;7.082;2023-02-04T07:47:37;7.00;99.90
3156;DHT22;1588;50.892;7.082;2023-02-04T07:52:40;7.10;99.90
3156;DHT22;1588;50.892;7.082;2023-02-04T07:57:42;7.10;99.90
3156;DHT22;1588;50.892;7.082;2023-02-04T08:02:46;7.10;99.90
3156;DHT22;1588;50.892;7.082;2023-02-04T08:07:49;7.20;99.90
3156;DHT22;1588;50.892;7.082;2023-02-04T08:12:51;7.20;99.90
3156;DHT22;1588;50.892;7.082;2023-02-04T08:17:55;7.20;99.90
3156;DHT22;1588;50.892;7.082;2023-02-04T08:22:59;7.30;99.90
3156;DHT22;1588;50.892;7.082;2023-02-04T08:28:02;7.40;99.90
3156;DHT22;1588;50.892;7.082;2023-02-04T08:33:06;7.40;99.90
3156;DHT22;1588;50.892;7.082;2023-02-04T08:38:08;7.40;99.90
3156;DHT22;1588;50.892;7.082;2023-02-04T08:43:11;7.40;99.90
3156;DHT22;1588;50.892;7.082;2023-02-04T08:48:15;7.60;99.90
3156;DHT22;1588;50.892;7.082;2023-02-04T08:53:17;7.60;99.90
3156;DHT22;1588;50.892;7.082;2023-02-04T08:58:20;7.70;99.90
3156;DHT22;1588;50.892;7.082;2023-02-04T09:03:25;7.80;99.90
3156;DHT22;1588;50.892;7.082;2023-02-04T09:08:27;7.90;99.90
3156;DHT22;1588;50.892;7.082;2023-02-04T09:13:30;8.00;99.90
3156;DHT22;1588;50.892;7.082;2023-02-04T09:18:35;8.10;99.90
3156;DHT22;1588;50.892;7.082;2023-02-04T09:23:44;8.00;99.90
3156;DHT22;1588;50.892;7.082;2023-02-04T09:28:47;8.10;99.90
3156;DHT22;1588;50.892;7.082;2023-02-04T09:33:50;8.10;99.90
3156;DHT22;1588;50.892;7.082;2023-02-04T09:38:53;8.20;99.90
3156;DHT22;1588;50.892;7.082;2023-02-04T09:43:55;8.40;99.90
3156;DHT22;1588;50.892;7.082;2023-02-04T09:48:59;8.60;99.90
3156;DHT22;1588;50.892;7.082;2023-02-04T09:54:07;8.60;99.90
3156;DHT22;1588;50.892;7.082;2023-02-04T09:59:13;8.60;99.90
3156;DHT22;1588;50.892;7.082;2023-02-04T10:04:18;8.70;99.90
3156;DHT22;1588;50.892;7.082;2023-02-04T10:09:21;8.90;99.90
3156;DHT22;1588;50.892;7.082;2023-02-04T10:14:23;8.90;99.90
3156;DHT22;1588;50.892;7.082;2023-02-04T10:19:28;9.20;99.90
3156;DHT22;1588;50.892;7.082;2023-02-04T10:24:31;9.20;99.90
3156;DHT22;1588;50.892;7.082;2023-02-04T10:29:38;9.10;99.90
3156;DHT22;1588;50.892;7.082;2023-02-04T10:34:44;9.20;99.90
3156;DHT22;1588;50.892;7.082;2023-02-04T10:39:48;9.10;99.90
3156;DHT22;1588;50.892;7.082;2023-02-04T10:44:51;9.20;99.90
3156;DHT22;1588;50.892;7.082;2023-02-04T10:49:57;9.30;99.90
3156;DHT22;1588;50.892;7.082;2023-02-04T10:55:12;9.20;99.90
3156;DHT22;1588;50.892;7.082;2023-02-04T11:00:17;9.40;99.90
3156;DHT22;1588;50.892;7.082;2023-02-04T11:05:24;9.50;99.90
3156;DHT22;1588;50.892;7.082;2023-02-04T11:10:32;9.50;99.90
3156;DHT22;1588;50.892;7.082;2023-02-04T11:15:45;9.50;99.90
3156;DHT22;1588;50.892;7.082;2023-02-04T11:20:51;9.50;99.90
3156;DHT22;1588;50.892;7.082;2023-02-04T11:26:02;9.60;99.90
3156;DHT22;1588;50.892;7.082;2023-02-04T11:31:13;9.50;99.90
3156;DHT22;1588;50.892;7.082;2023-02-04T11:36:18;9.60;99.90
3156;DHT22;1588;50.892;7.082;2023-02-04T11:41:23;9.70;99.90
3156;DHT22;1588;50.892;7.082;2023-02-04T11:46:27;9.80;99.90
3156;DHT22;1588;50.892;7.082;2023-02-04T11:51:38;9.70;99.90
3156;DHT22;1588;50.892;7.082;2023-02-04T11:56:40;9.70;99.90
3156;DHT22;1588;50.892;7.082;2023-02-04T12:01:43;9.90;99.90
3156;DHT22;1588;50.892;7.082;2023-02-04T12:06:56;10.00;99.90
3156;DHT22;1588;50.892;7.082;2023-02-04T12:12:00;10.10;99.90
3156;DHT22;1588;50.892;7.082;2023-02-04T12:17:14;10.00;99.90
3156;DHT22;1588;50.892;7.082;2023-02-04T12:22:23;10.00;99.90
3156;DHT22;1588;50.892;7.082;2023-02-04T12:27:26;10.00;99.90
3156;DHT22;1588;50.892;7.082;2023-02-04T12:32:28;10.00;99.90
3156;DHT22;1588;50.892;7.082;2023-02-04T12:37:35;9.90;99.90
3156;DHT22;1588;50.892;7.082;2023-02-04T12:42:38;9.90;99.90
3156;DHT22;1588;50.892;7.082;2023-02-04T12:47:41;10.00;99.90
3156;DHT22;1588;50.892;7.082;2023-02-04T12:52:45;10.10;99.90
3156;DHT22;1588;50.892;7.082;2023-02-04T12:57:48;10.20;99.90
3156;DHT22;1588;50.892;7.082;2023-02-04T13:02:50;10.20;99.90
3156;DHT22;1588;50.892;7.082;2023-02-04T13:07:56;10.20;99.90
3156;DHT22;1588;50.892;7.082;2023-02-04T13:12:58;10.40;99.90
3156;DHT22;1588;50.892;7.082;2023-02-04T13:18:01;10.30;99.90
3156;DHT22;1588;50.892;7.082;2023-02-04T13:23:05;10.40;99.90
3156;DHT22;1588;50.892;7.082;2023-02-04T13:28:07;10.30;99.90
3156;DHT22;1588;50.892;7.082;2023-02-04T13:33:10;10.30;99.90
3156;DHT22;1588;50.892;7.082;2023-02-04T13:38:13;10.40;99.90
3156;DHT22;1588;50.892;7.082;2023-02-04T13:43:16;10.40;99.90
3156;DHT22;1588;50.892;7.082;2023-02-04T13:48:20;10.50;99.90
3156;DHT22;1588;50.892;7.082;2023-02-04T13:53:24;10.40;99.90
3156;DHT22;1588;50.892;7.082;2023-02-04T13:58:30;10.30;99.90
3156;DHT22;1588;50.892;7.082;2023-02-04T14:03:33;10.20;99.90
3156;DHT22;1588;50.892;7.082;2023-02-04T14:08:37;10.20;99.90
3156;DHT22;1588;50.892;7.082;2023-02-04T14:13:39;10.20;99.90
3156;DHT22;1588;50.892;7.082;2023-02-04T14:18:42;10.30;99.90
3156;DHT22;1588;50.892;7.082;2023-02-04T14:23:45;10.40;99.90
3156;DHT22;1588;50.892;7.082;2023-02-04T14:28:49;10.30;99.90
3156;DHT22;1588;50.892;7.082;2023-02-04T14:33:51;10.10;99.90
3156;DHT22;1588;50.892;7.082;2023-02-04T14:38:55;9.90;99.90
3156;DHT22;1588;50.892;7.082;2023-02-04T14:43:57;9.90;99.90
3156;DHT22;1588;50.892;7.082;2023-02-04T14:49:00;9.80;99.90
3156;DHT22;1588;50.892;7.082;2023-02-04T14:54:05;9.90;99.90
3156;DHT22;1588;50.892;7.082;2023-02-04T14:59:08;9.80;99.90
3156;DHT22;1588;50.892;7.082;2023-02-04T15:04:11;9.70;99.90
3156;DHT22;1588;50.892;7.082;2023-02-04T15:09:15;9.60;99.90
3156;DHT22;1588;50.892;7.082;2023-02-04T15:14:18;9.50;99.90
3156;DHT22;1588;50.892;7.082;2023-02-04T15:19:20;9.40;99.90
3156;DHT22;1588;50.892;7.082;2023-02-04T15:24:25;9.20;99.90
3156;DHT22;1588;50.892;7.082;2023-02-04T15:29:29;9.10;99.90
3156;DHT22;1588;50.892;7.082;2023-02-04T15:34:31;8.90;99.90
3156;DHT22;1588;50.892;7.082;2023-02-04T15:39:35;8.80;99.90
3156;DHT22;1588;50.892;7.082;2023-02-04T15:44:38;8.60;99.90
3156;DHT22;1588;50.892;7.082;2023-02-04T15:49:40;8.40;99.90
3156;DHT22;1588;50.892;7.082;2023-02-04T15:54:44;8.10;99.90
3156;DHT22;1588;50.892;7.082;2023-02-04T15:59:46;7.90;99.90
3156;DHT22;1588;50.892;7.082;2023-02-04T16:04:49;7.80;99.90
3156;DHT22;1588;50.892;7.082;2023-02-04T16:09:53;7.70;99.90
3156;DHT22;1588;50.892;7.082;2023-02-04T16:14:55;7.80;99.90
3156;DHT22;1588;50.892;7.082;2023-02-04T16:19:57;7.80;99.90
3156;DHT22;1588;50.892;7.082;2023-02-04T16:25:03;7.90;99.90
3156;DHT22;1588;50.892;7.082;2023-02-04T16:30:07;7.90;99.90
3156;DHT22;1588;50.892;7.082;2023-02-04T16:35:10;7.80;99.90
3156;DHT22;1588;50.892;7.082;2023-02-04T16:40:15;7.70;99.90
3156;DHT22;1588;50.892;7.082;2023-02-04T16:45:18;7.60;99.90
3156;DHT22;1588;50.892;7.082;2023-02-04T16:50:21;7.50;99.90
3156;DHT22;1588;50.892;7.082;2023-02-04T16:55:35;7.40;99.90
3156;DHT22;1588;50.892;7.082;2023-02-04T17:00:39;7.20;99.90
3156;DHT22;1588;50.892;7.082;2023-02-04T17:05:52;7.20;99.90
3156;DHT22;1588;50.892;7.082;2023-02-04T17:10:56;7.20;99.90
3156;DHT22;1588;50.892;7.082;2023-02-04T17:16:15;7.10;99.90
3156;DHT22;1588;50.892;7.082;2023-02-04T17:21:20;7.00;99.90
3156;DHT22;1588;50.892;7.082;2023-02-04T17:26:25;6.90;99.90
3156;DHT22;1588;50.892;7.082;2023-02-04T17:31:28;6.80;99.90
3156;DHT22;1588;50.892;7.082;2023-02-04T17:36:30;6.70;99.90
3156;DHT22;1588;50.892;7.082;2023-02-04T17:41:34;6.70;99.90
3156;DHT22;1588;50.892;7.082;2023-02-04T17:46:37;6.70;99.90
3156;DHT22;1588;50.892;7.082;2023-02-04T17:51:39;6.80;99.90
3156;DHT22;1588;50.892;7.082;2023-02-04T17:56:43;6.80;99.90
3156;DHT22;1588;50.892;7.082;2023-02-04T18:01:46;6.90;99.90
3156;DHT22;1588;50.892;7.082;2023-02-04T18:06:50;6.90;99.90
3156;DHT22;1588;50.892;7.082;2023-02-04T18:12:00;6.90;99.90
3156;DHT22;1588;50.892;7.082;2023-02-04T18:17:08;6.90;99.90
3156;DHT22;1588;50.892;7.082;2023-02-04T18:22:14;6.80;99.90
3156;DHT22;1588;50.892;7.082;2023-02-04T18:27:29;6.80;99.90
3156;DHT22;1588;50.892;7.082;2023-02-04T18:32:35;6.70;99.90
3156;DHT22;1588;50.892;7.082;2023-02-04T18:37:45;6.70;99.90
3156;DHT22;1588;50.892;7.082;2023-02-04T18:42:57;6.80;99.90
3156;DHT22;1588;50.892;7.082;2023-02-04T18:53:40;6.70;99.90
3156;DHT22;1588;50.892;7.082;2023-02-04T18:58:44;6.70;99.90
3156;DHT22;1588;50.892;7.082;2023-02-04T19:03:51;6.70;99.90
3156;DHT22;1588;50.892;7.082;2023-02-04T19:09:01;6.70;99.90
3156;DHT22;1588;50.892;7.082;2023-02-04T19:14:17;6.70;99.90
3156;DHT22;1588;50.892;7.082;2023-02-04T19:19:35;6.60;99.90
3156;DHT22;1588;50.892;7.082;2023-02-04T19:24:38;6.70;99.90
3156;DHT22;1588;50.892;7.082;2023-02-04T19:29:41;6.60;99.90
3156;DHT22;1588;50.892;7.082;2023-02-04T19:34:44;6.70;99.90
3156;DHT22;1588;50.892;7.082;2023-02-04T19:39:49;6.70;99.90
3156;DHT22;1588;50.892;7.082;2023-02-04T19:45:08;6.70;99.90
3156;DHT22;1588;50.892;7.082;2023-02-04T19:50:25;6.70;99.90
3156;DHT22;1588;50.892;7.082;2023-02-04T19:55:31;6.70;99.90
3156;DHT22;1588;50.892;7.082;2023-02-04T20:00:39;6.70;99.90
3156;DHT22;1588;50.892;7.082;2023-02-04T20:05:43;6.70;99.90
3156;DHT22;1588;50.892;7.082;2023-02-04T20:10:45;6.70;99.90
3156;DHT22;1588;50.892;7.082;2023-02-04T20:15:50;6.70;99.90
3156;DHT22;1588;50.892;7.082;2023-02-04T20:20:55;6.70;99.90
3156;DHT22;1588;50.892;7.082;2023-02-04T20:25:59;6.60;99.90
3156;DHT22;1588;50.892;7.082;2023-02-04T20:31:17;6.60;99.90
3156;DHT22;1588;50.892;7.082;2023-02-04T20:36:39;6.70;99.90
3156;DHT22;1588;50.892;7.082;2023-02-04T20:41:42;6.70;99.90
3156;DHT22;1588;50.892;7.082;2023-02-04T20:46:46;6.70;99.90
3156;DHT22;1588;50.892;7.082;2023-02-04T20:51:48;6.60;99.90
3156;DHT22;1588;50.892;7.082;2023-02-04T20:56:51;6.60;99.90
3156;DHT22;1588;50.892;7.082;2023-02-04T21:01:55;6.70;99.90
3156;DHT22;1588;50.892;7.082;2023-02-04T21:06:59;6.70;99.90
3156;DHT22;1588;50.892;7.082;2023-02-04T21:12:06;6.70;99.90
3156;DHT22;1588;50.892;7.082;2023-02-04T21:17:09;6.70;99.90
3156;DHT22;1588;50.892;7.082;2023-02-04T21:22:12;6.70;99.90
3156;DHT22;1588;50.892;7.082;2023-02-04T21:27:14;6.80;99.90
3156;DHT22;1588;50.892;7.082;2023-02-04T21:32:19;6.80;99.90
3156;DHT22;1588;50.892;7.082;2023-02-04T21:37:24;6.80;99.90
3156;DHT22;1588;50.892;7.082;2023-02-04T21:42:26;6.80;99.90
3156;DHT22;1588;50.892;7.082;2023-02-04T21:47:30;6.80;99.90
3156;DHT22;1588;50.892;7.082;2023-02-04T21:52:32;6.80;99.90
3156;DHT22;1588;50.892;7.082;2023-02-04T21:57:35;6.90;99.90
3156;DHT22;1588;50.892;7.082;2023-02-04T22:02:38;6.90;99.90
3156;DHT22;1588;50.892;7.082;2023-02-04T22:07:41;6.80;99.90
3156;DHT22;1588;50.892;7.082;2023-02-04T22:12:43;6.80;99.90
3156;DHT22;1588;50.892;7.082;2023-02-04T22:17:48;6.80;99.90
3156;DHT22;1588;50.892;7.082;2023-02-04T22:22:50;6.90;99.90
3156;DHT22;1588;50.892;7.082;2023-02-04T22:27:53;6.80;99.90
3156;DHT22;1588;50.892;7.082;2023-02-04T22:32:57;6.70;99.90
3156;DHT22;1588;50.892;7.082;2023-02-04T22:38:01;6.70;99.90
3156;DHT22;1588;50.892;7.082;2023-02-04T22:43:04;6.70;99.90
3156;DHT22;1588;50.892;7.082;2023-02-04T22:48:08;6.70;99.90
3156;DHT22;1588;50.892;7.082;2023-02-04T22:53:10;6.70;99.90
3156;DHT22;1588;50.892;7.082;2023-02-04T22:58:13;6.70;99.90
3156;DHT22;1588;50.892;7.082;2023-02-04T23:03:17;6.70;99.90
3156;DHT22;1588;50.892;7.082;2023-02-04T23:08:20;6.60;99.90
3156;DHT22;1588;50.892;7.082;2023-02-04T23:13:23;6.70;99.90
3156;DHT22;1588;50.892;7.082;2023-02-04T23:18:27;6.60;99.90
3156;DHT22;1588;50.892;7.082;2023-02-04T23:23:30;6.50;99.90
3156;DHT22;1588;50.892;7.082;2023-02-04T23:28:33;6.60;99.90
3156;DHT22;1588;50.892;7.082;2023-02-04T23:33:37;6.60;99.90
3156;DHT22;1588;50.892;7.082;2023-02-04T23:38:39;6.60;99.90
3156;DHT22;1588;50.892;7.082;2023-02-04T23:43:42;6.60;99.90
3156;DHT22;1588;50.892;7.082;2023-02-04T23:48:46;6.70;99.90
3156;DHT22;1588;50.892;7.082;2023-02-04T23:53:48;6.60;99.90
3156;DHT22;1588;50.892;7.082;2023-02-04T23:58:51;6.60;99.90
